Time;durP1;ratioP1;P1;durP2;ratioP2;P2;SDS_P1;SDS_P2;PMS_P1;PMS_P2;Temp;Humidity;BMP_temperature;BMP_pressure;BME280_temperature;BME280_humidity;BME280_pressure;Samples;Min_cycle;Max_cycle;Signal;HPM_P1;HPM_P2
2022/09/11 00:03:22;;;;;;;;;;;;;;;;;;;;;
2022/09/11 00:09:25;;;;;;;5.10;3.60;;;;;;;12.70;100.00;98252.40;219991;1277;22544;-77
2022/09/11 00:16:04;;;;;;;;;;;;;;;;;;;;;
2022/09/11 00:22:35;;;;;;;6.20;4.30;;;;;;;12.68;100.00;98255.59;219977;1277;25424;-80
2022/09/11 00:28:45;;;;;;;3.60;3.10;;;;;;;12.68;100.00;98246.71;221117;1277;24229;-75
2022/09/11 00:35:05;;;;;;;4.70;3.70;;;;;;;12.70;100.00;98245.33;220069;1277;24591;-78
2022/09/11 00:48:41;;;;;;;4.50;3.10;;;;;;;12.73;100.00;98236.95;219376;1281;22590;-79
2022/09/11 00:55:29;;;;;;;;;;;;;;;;;;;;;
2022/09/11 01:01:03;;;;;;;6.10;4.30;;;;;;;12.69;100.00;98229.30;109928;1278;1016407;-77
2022/09/11 01:07:18;;;;;;;4.80;4.30;;;;;;;12.62;100.00;98227.65;109888;1278;1016579;-78
2022/09/11 01:21:05;;;;;;;;;;;;;;;;;;;;;
2022/09/11 01:28:15;;;;;;;;;;;;;;;;;;;;;
2022/09/11 01:47:57;;;;;;;7.20;3.60;;;;;;;12.72;100.00;98227.20;215603;1277;23811;-77
2022/09/11 01:54:02;;;;;;;3.10;2.80;;;;;;;12.69;100.00;98219.11;219975;1277;22567;-78
2022/09/11 02:00:53;;;;;;;;;;;;;;;;;;;;;
2022/09/11 02:20:01;;;;;;;4.10;3.00;;;;;;;12.60;100.00;98221.01;220813;1277;22499;-77
2022/09/11 02:26:39;;;;;;;;;;;;;;;;;;;;;
2022/09/11 02:32:40;;;;;;;;;;;;;;;12.59;100.00;98212.66;219790;1277;22690;-78
2022/09/11 02:45:28;;;;;;;3.80;2.90;;;;;;;12.58;100.00;98205.48;219646;1278;25335;-79
2022/09/11 02:59:24;;;;;;;5.50;3.50;;;;;;;12.57;100.00;98212.96;219709;1277;22541;-79
2022/09/11 03:20:03;;;;;;;4.60;3.00;;;;;;;12.56;100.00;98199.73;220183;1277;22566;-77
2022/09/11 03:40:38;;;;;;;3.70;2.70;;;;;;;12.60;100.00;98197.42;219411;1284;24220;-78
2022/09/11 03:53:27;;;;;;;;;;;;;;;;;;;;;
2022/09/11 04:07:04;;;;;;;2.90;2.60;;;;;;;12.62;100.00;98200.59;219394;1279;25376;-77
2022/09/11 04:19:20;;;;;;;5.00;2.70;;;;;;;12.68;100.00;98203.02;220018;1277;23853;-76
2022/09/11 04:31:26;;;;;;;4.10;2.40;;;;;;;12.74;100.00;98199.67;220824;1276;24323;-79
2022/09/11 04:36:29;;;;;;;3.10;2.70;;;;;;;12.76;100.00;98199.31;219930;1277;25413;-78
2022/09/11 04:42:30;;;;;;;3.90;2.80;;;;;;;12.77;100.00;98199.89;220125;1277;25323;-78
2022/09/11 04:48:43;;;;;;;3.20;2.30;;;;;;;12.79;100.00;98199.13;219109;1284;22553;-78
2022/09/11 04:55:16;;;;;;;3.60;3.20;;;;;;;12.82;100.00;98196.34;218843;1284;24268;-78
2022/09/11 05:01:04;;;;;;;;;;;;;;;12.87;100.00;98196.70;219091;1284;22554;-78
2022/09/11 05:07:17;;;;;;;3.70;3.30;;;;;;;12.90;100.00;98199.65;219561;1277;25446;-79
2022/09/11 05:13:40;;;;;;;;;;;;;;;;;;;;;
2022/09/11 05:25:50;;;;;;;;;;;;;;;;;;;;;
2022/09/11 05:32:23;;;;;;;5.50;4.20;;;;;;;13.19;100.00;98204.05;221161;1277;22582;-78
2022/09/11 05:38:49;;;;;;;;;;;;;;;;;;;;;
2022/09/11 05:44:58;;;;;;;4.60;4.00;;;;;;;13.36;100.00;98216.58;219776;1277;22562;-79
2022/09/11 05:50:58;;;;;;;4.70;4.10;;;;;;;13.48;100.00;98221.73;220125;1276;24232;-78
2022/09/11 05:57:01;;;;;;;8.50;4.90;;;;;;;13.62;100.00;98217.23;220057;1277;24280;-78
2022/09/11 06:04:07;;;;;;;;;;;;;;;;;;;;;
2022/09/11 06:10:38;;;;;;;5.00;4.50;;;;;;;13.98;100.00;98216.14;220074;1276;22538;-78
2022/09/11 06:16:30;;;;;;;6.60;4.10;;;;;;;14.15;100.00;98220.96;220081;1276;22563;-78
2022/09/11 06:23:17;;;;;;;5.80;4.30;;;;;;;14.15;100.00;98226.52;219583;1277;22603;-77
2022/09/11 06:29:06;;;;;;;7.00;4.30;;;;;;;14.12;100.00;98229.26;220015;1276;22563;-78
2022/09/11 06:35:52;;;;;;;5.40;4.20;;;;;;;14.14;100.00;98230.80;219776;1276;22642;-78
2022/09/11 06:41:40;;;;;;;6.30;5.60;;;;;;;14.26;100.00;98229.53;220188;1276;22802;-78
2022/09/11 06:54:30;;;;;;;9.10;6.00;;;;;;;14.68;100.00;98237.16;220117;1277;23971;-78
2022/09/11 07:01:03;;;;;;;5.10;4.70;;;;;;;14.85;100.00;98241.02;219886;1276;22538;-77
2022/09/11 07:13:53;;;;;;;6.10;4.60;;;;;;;14.86;100.00;98242.69;220023;1277;23179;-77
2022/09/11 07:20:10;;;;;;;;;;;;;;;;;;;;;
2022/09/11 07:26:43;;;;;;;6.60;5.20;;;;;;;14.91;100.00;98241.62;219981;1276;22563;-78
2022/09/11 07:32:37;;;;;;;6.30;4.80;;;;;;;14.93;100.00;98244.45;220035;1276;22623;-78
2022/09/11 07:38:35;;;;;;;7.00;5.50;;;;;;;14.98;100.00;98245.93;219949;1277;24347;-76
2022/09/11 07:44:06;;;;;;;5.60;4.60;;;;;;;15.10;100.00;98249.51;219936;1277;22674;-77
2022/09/11 07:49:38;;;;;;;6.40;5.70;;;;;;;15.23;100.00;98249.39;218504;1284;24249;-78
2022/09/11 07:55:27;;;;;;;7.50;5.60;;;;;;;15.34;100.00;98248.21;218435;1284;25256;-78
2022/09/11 08:00:39;;;;;;;8.30;5.90;;;;;;;15.32;99.96;98253.24;218250;1284;22588;-77
2022/09/11 08:06:36;;;;;;;;;;;;;;;;;;;;;
2022/09/11 08:12:10;;;;;;;7.20;5.90;;;;;;;15.30;99.76;98263.40;216974;1287;1003445;-78
2022/09/11 08:17:15;;;;;;;7.90;6.10;;;;;;;15.34;99.81;98262.69;217835;1287;23224;-77
2022/09/11 08:22:39;;;;;;;7.30;6.20;;;;;;;15.51;99.79;98260.48;218034;1287;24255;-78
2022/09/11 08:28:11;;;;;;;6.80;6.00;;;;;;;15.84;99.92;98264.78;218025;1287;22726;-78
2022/09/11 08:33:32;;;;;;;7.90;6.20;;;;;;;16.08;99.35;98269.28;218204;1287;22545;-78
2022/09/11 08:39:04;;;;;;;7.10;6.40;;;;;;;16.14;98.46;98274.73;218141;1287;25421;-77
2022/09/11 08:44:48;;;;;;;;;;;;;;;;;;;;;
2022/09/11 08:50:50;;;;;;;7.00;5.40;;;;;;;16.05;97.87;98283.40;218362;1287;22642;-78
2022/09/11 08:56:04;;;;;;;4.50;4.00;;;;;;;16.16;97.52;98286.60;218042;1287;25466;-78
2022/09/11 09:02:10;;;;;;;4.70;3.80;;;;;;;16.27;96.89;98287.00;217977;1287;23398;-78
2022/09/11 09:08:15;;;;;;;4.10;3.80;;;;;;;16.42;96.13;98282.85;218943;1282;25522;-78
2022/09/11 09:20:34;;;;;;;4.50;3.90;;;;;;;16.68;95.76;98280.63;219523;1277;22563;-78
2022/09/11 09:26:00;;;;;;;3.70;3.20;;;;;;;16.99;95.23;98283.64;220018;1277;23354;-78
2022/09/11 09:31:38;;;;;;;2.90;2.70;;;;;;;17.23;94.30;98285.79;220051;1278;22569;-78
2022/09/11 09:37:47;;;;;;;3.90;2.70;;;;;;;17.25;93.24;98286.06;220147;1276;22626;-78
2022/09/11 09:44:17;;;;;;;3.70;2.60;;;;;;;17.29;93.25;98287.72;219252;1278;22715;-78
2022/09/11 09:50:10;;;;;;;2.90;2.50;;;;;;;17.22;92.46;98285.73;220046;1278;24248;-77
2022/09/11 09:55:41;;;;;;;3.10;2.80;;;;;;;17.15;92.34;98282.46;219251;1277;1002726;-77
2022/09/11 10:02:11;;;;;;;3.40;2.70;;;;;;;17.28;92.89;98285.52;219957;1277;22555;-79
2022/09/11 10:08:15;;;;;;;3.30;2.50;;;;;;;17.36;92.31;98290.60;219868;1278;22556;-78
2022/09/11 10:14:04;;;;;;;;;;;;;;;;;;;;;
2022/09/11 10:19:59;;;;;;;4.70;2.60;;;;;;;17.74;91.06;98280.09;220229;1276;23098;-78
2022/09/11 10:25:46;;;;;;;3.40;2.90;;;;;;;18.06;90.82;98280.50;219219;1277;1003278;-78
2022/09/11 10:31:17;;;;;;;3.80;2.90;;;;;;;18.24;89.90;98287.74;219999;1276;22784;-77
2022/09/11 10:37:01;;;;;;;4.70;2.90;;;;;;;18.27;89.11;98291.17;220004;1276;25411;-78
2022/09/11 10:42:40;;;;;;;4.40;2.70;;;;;;;18.33;89.04;98300.37;219819;1278;22544;-79
2022/09/11 10:48:44;;;;;;;3.40;3.10;;;;;;;18.53;88.34;98296.18;220215;1276;22977;-78
2022/09/11 10:55:32;;;;;;;;;;;;;;;;;;;;;
2022/09/11 11:01:05;;;;;;;4.00;3.10;;;;;;;18.77;87.35;98285.55;219413;1281;22549;-78
2022/09/11 11:06:51;;;;;;;3.20;2.90;;;;;;;18.89;86.92;98277.20;219376;1281;23448;-78
2022/09/11 11:13:05;;;;;;;2.60;2.40;;;;;;;18.95;86.17;98278.66;219325;1281;23828;-78
2022/09/11 11:25:33;;;;;;;3.00;2.70;;;;;;;19.11;85.81;98290.46;219986;1281;22677;-77
2022/09/11 11:31:41;;;;;;;3.00;2.70;;;;;;;19.19;84.88;98291.79;219649;1279;25302;-79
2022/09/11 11:38:23;;;;;;;3.50;2.60;;;;;;;19.22;84.68;98296.34;219807;1278;24351;-79
2022/09/11 11:44:10;;;;;;;3.30;3.00;;;;;;;19.17;84.30;98298.25;219930;1278;22708;-78
2022/09/11 11:50:08;;;;;;;3.20;2.80;;;;;;;19.06;83.93;98300.98;220016;1277;22578;-79
2022/09/11 11:55:46;;;;;;;4.30;2.90;;;;;;;18.75;83.82;98298.60;219893;1278;25259;-78
2022/09/11 12:01:10;;;;;;;3.60;3.30;;;;;;;18.58;84.03;98303.88;220123;1277;25425;-80
2022/09/11 12:06:44;;;;;;;3.40;3.10;;;;;;;18.47;84.21;98301.01;219566;1280;22546;-78
2022/09/11 12:12:42;;;;;;;3.40;3.10;;;;;;;18.41;84.16;98300.02;220467;1280;22566;-78
2022/09/11 12:19:00;;;;;;;;;;;;;;;;;;;;;
2022/09/11 12:24:53;;;;;;;;;;;;;;;;;;;;;
2022/09/11 12:29:56;;;;;;;4.40;2.60;;;;;;;18.67;82.75;98289.52;219712;1279;25347;-79
2022/09/11 12:35:28;;;;;;;2.10;1.90;;;;;;;18.72;82.65;98290.09;219336;1276;22647;-79
2022/09/11 12:40:52;;;;;;;2.90;2.50;;;;;;;18.89;82.56;98290.54;219985;1276;26328;-79
2022/09/11 12:46:50;;;;;;;2.40;2.20;;;;;;;18.97;81.27;98288.55;220836;1276;25256;-79
2022/09/11 12:52:01;;;;;;;;;;;;;;;19.01;81.17;98288.70;220004;1276;24270;-78
2022/09/11 12:57:35;;;;;;;4.50;2.60;;;;;;;18.75;80.84;98302.15;220010;1278;22611;-79
2022/09/11 13:03:03;;;;;;;3.40;3.10;;;;;;;17.98;82.97;98291.45;221063;1276;23836;-79
2022/09/11 13:08:23;;;;;;;4.30;3.70;;;;;;;17.60;85.01;98293.03;220967;1276;22587;-80
2022/09/11 13:14:04;;;;;;;6.00;3.70;;;;;;;17.47;86.37;98282.72;220666;1278;22597;-80
2022/09/11 13:19:56;;;;;;;4.30;3.10;;;;;;;17.56;87.25;98284.19;221218;1276;22593;-79
2022/09/11 13:25:24;;;;;;;2.90;2.70;;;;;;;17.72;87.52;98283.58;221139;1278;22554;-79
2022/09/11 13:30:47;;;;;;;5.10;2.60;;;;;;;17.73;86.96;98285.71;220110;1279;22547;-79
2022/09/11 13:36:27;;;;;;;;;;;;;;;;;;;;;
2022/09/11 13:42:15;;;;;;;2.50;2.30;;;;;;;17.73;85.57;98289.33;220951;1278;22945;-78
2022/09/11 13:47:44;;;;;;;2.80;2.20;;;;;;;17.77;85.29;98290.59;218889;1278;22630;-76
2022/09/11 13:53:27;;;;;;;2.20;2.00;;;;;;;17.89;85.10;98285.97;220166;1278;22589;-79
2022/09/11 13:58:58;;;;;;;3.10;2.40;;;;;;;18.10;84.97;98285.96;219985;1279;22574;-78
2022/09/11 14:04:10;;;;;;;5.40;2.30;;;;;;;18.21;84.46;98280.55;219809;1278;23072;-80
2022/09/11 14:09:22;;;;;;;2.70;2.10;;;;;;;18.20;83.79;98283.46;219706;1278;22726;-78
2022/09/11 14:14:45;;;;;;;2.10;1.90;;;;;;;18.18;83.30;98278.79;219919;1278;22583;-79
2022/09/11 14:19:53;;;;;;;2.60;2.20;;;;;;;18.11;83.21;98280.63;219818;1278;22666;-79
2022/09/11 14:25:58;;;;;;;2.30;2.00;;;;;;;17.98;83.40;98283.96;220202;1278;22564;-79
2022/09/11 14:31:47;;;;;;;3.40;2.90;;;;;;;17.86;83.59;98288.19;219530;1278;23094;-80
2022/09/11 14:37:16;;;;;;;2.60;2.40;;;;;;;17.89;83.87;98286.58;220217;1279;24319;-79
2022/09/11 14:42:35;;;;;;;3.60;2.60;;;;;;;17.88;83.94;98283.93;220010;1278;23685;-78
2022/09/11 14:48:14;;;;;;;2.90;2.70;;;;;;;17.86;83.81;98279.52;220180;1278;22793;-79
2022/09/11 14:53:33;;;;;;;3.60;2.70;;;;;;;17.82;83.52;98280.45;219760;1278;24272;-79
2022/09/11 14:58:57;;;;;;;;;;;;;;;;;;;;;
2022/09/11 15:10:37;;;;;;;4.40;3.60;;;;;;;17.38;83.66;98282.40;219928;1278;24248;-79
2022/09/11 15:15:43;;;;;;;3.60;3.10;;;;;;;17.30;83.90;98280.95;220716;1279;22622;-79
2022/09/11 15:21:02;;;;;;;4.10;3.70;;;;;;;17.25;84.20;98282.36;219731;1277;23236;-79
2022/09/11 15:26:17;;;;;;;4.90;4.10;;;;;;;17.15;84.38;98284.48;219892;1278;22550;-79
2022/09/11 15:31:39;;;;;;;7.80;4.80;;;;;;;16.99;84.56;98290.74;219761;1277;26846;-78
2022/09/11 15:37:04;;;;;;;3.90;2.80;;;;;;;16.77;84.56;98332.27;218667;1284;24298;-79
2022/09/11 15:43:26;;;;;;;5.70;3.50;;;;;;;16.01;84.85;98323.67;218720;1284;22850;-79
2022/09/11 15:49:06;;;;;;;5.40;4.40;;;;;;;15.37;86.50;98327.55;218939;1284;22807;-77
2022/09/11 15:54:27;;;;;;;5.80;4.70;;;;;;;15.06;87.74;98333.80;218974;1284;22715;-79
2022/09/11 16:00:47;;;;;;;7.90;5.20;;;;;;;14.85;89.22;98335.94;218758;1284;24258;-79
2022/09/11 16:06:26;;;;;;;7.10;5.60;;;;;;;14.78;90.13;98347.91;219216;1278;22551;-80
2022/09/11 16:11:46;;;;;;;6.30;5.20;;;;;;;14.77;90.83;98348.79;220440;1276;22615;-78
2022/09/11 16:17:08;;;;;;;6.90;4.80;;;;;;;14.82;91.42;98357.62;219934;1276;24287;-77
2022/09/11 16:22:10;;;;;;;7.40;4.90;;;;;;;14.82;91.62;98355.37;220875;1276;24715;-78
2022/09/11 16:27:23;;;;;;;6.10;5.30;;;;;;;14.80;91.90;98363.76;220562;1279;22728;-79
2022/09/11 16:32:54;;;;;;;5.10;4.30;;;;;;;14.78;92.04;98373.25;220961;1275;23249;-80
2022/09/11 16:39:17;;;;;;;;;;;;;;;;;;;;;
2022/09/11 16:44:40;;;;;;;5.80;5.00;;;;;;;14.70;92.44;98370.63;219969;1276;22559;-79
2022/09/11 16:50:01;;;;;;;7.90;4.80;;;;;;;14.66;92.50;98373.33;220927;1276;22780;-79
2022/09/11 16:55:13;;;;;;;7.10;4.80;;;;;;;14.60;92.65;98380.83;220031;1276;22715;-79
2022/09/11 17:00:20;;;;;;;4.60;4.10;;;;;;;14.53;92.82;98383.50;220082;1276;22564;-80
2022/09/11 17:05:31;;;;;;;4.50;3.90;;;;;;;14.46;92.77;98381.53;219998;1276;22626;-79
2022/09/11 17:10:57;;;;;;;6.10;3.50;;;;;;;14.38;92.72;98385.67;219785;1279;25222;-79
2022/09/11 17:16:13;;;;;;;;;;;;;;;14.32;92.85;98385.13;219828;1278;24344;-79
2022/09/11 17:21:27;;;;;;;6.20;3.60;;;;;;;14.27;92.95;98392.66;220266;1276;24239;-78
2022/09/11 17:26:33;;;;;;;4.30;3.90;;;;;;;14.21;92.99;98392.45;220293;1276;22895;-79
2022/09/11 17:31:52;;;;;;;5.50;4.10;;;;;;;14.16;93.13;98404.80;220159;1276;22559;-80
2022/09/11 17:37:46;;;;;;;5.50;4.40;;;;;;;14.14;93.42;98410.84;220036;1277;24279;-77
2022/09/11 17:42:53;;;;;;;5.00;4.40;;;;;;;14.14;93.38;98412.73;220017;1276;24716;-79
2022/09/11 17:48:40;;;;;;;4.60;3.40;;;;;;;14.15;93.57;98418.42;219856;1277;24365;-79
2022/09/11 17:54:24;;;;;;;5.60;3.90;;;;;;;14.12;93.52;98420.69;219280;1281;25314;-79
2022/09/11 17:59:28;;;;;;;4.30;3.30;;;;;;;14.05;93.38;98425.48;219444;1281;22821;-79
2022/09/11 18:04:43;;;;;;;4.50;3.60;;;;;;;13.97;93.65;98429.00;219146;1282;22563;-80
2022/09/11 18:09:57;;;;;;;5.20;4.30;;;;;;;13.89;93.79;98432.49;219474;1281;24284;-79
2022/09/11 18:15:05;;;;;;;4.70;3.60;;;;;;;13.82;93.87;98438.20;219258;1282;25549;-79
2022/09/11 18:20:16;;;;;;;5.40;3.60;;;;;;;13.75;94.07;98440.10;220903;1277;24357;-80
2022/09/11 18:25:24;;;;;;;5.50;3.90;;;;;;;13.70;94.21;98440.36;220505;1278;23300;-78
2022/09/11 18:30:30;;;;;;;6.30;4.20;;;;;;;13.68;94.34;98444.28;219905;1277;22565;-79
2022/09/11 18:35:33;;;;;;;4.20;3.80;;;;;;;13.68;94.40;98445.20;219964;1277;24266;-79
2022/09/11 18:40:41;;;;;;;4.50;3.60;;;;;;;13.70;94.47;98449.36;219812;1277;25608;-79
2022/09/11 18:45:47;;;;;;;3.80;3.10;;;;;;;13.70;94.57;98448.73;220260;1277;25404;-78
2022/09/11 18:50:54;;;;;;;5.10;3.80;;;;;;;13.72;94.64;98449.07;220468;1278;22557;-79
2022/09/11 18:56:10;;;;;;;4.20;3.40;;;;;;;13.75;94.83;98447.41;220924;1277;22764;-79
2022/09/11 19:01:15;;;;;;;4.20;3.80;;;;;;;13.76;94.85;98452.77;220834;1278;22725;-79
2022/09/11 19:06:34;;;;;;;;;;;;;;;;;;;;;
2022/09/11 19:11:53;;;;;;;5.60;3.70;;;;;;;13.82;94.94;98457.90;219779;1278;23112;-79
2022/09/11 19:17:26;;;;;;;4.90;3.60;;;;;;;13.85;95.03;98464.11;219969;1277;25260;-80
2022/09/11 19:22:35;;;;;;;6.70;4.00;;;;;;;13.89;95.27;98468.10;219574;1281;22706;-78
2022/09/11 19:27:40;;;;;;;5.30;4.30;;;;;;;13.91;95.29;98473.20;219428;1281;23165;-80
2022/09/11 19:33:26;;;;;;;;;;;;;;;;;;;;;
2022/09/11 19:39:43;;;;;;;5.60;4.50;;;;;;;13.97;95.53;98471.98;220246;1281;22708;-80
2022/09/11 19:45:37;;;;;;;6.20;4.60;;;;;;;13.99;95.62;98478.55;218941;1281;22561;-78
2022/09/11 19:51:31;;;;;;;;;;;;;;;13.96;95.61;98476.02;219682;1278;25467;-79
2022/09/11 19:56:35;;;;;;;6.10;4.30;;;;;;;13.98;95.62;98486.80;219836;1278;23813;-79
2022/09/11 20:01:49;;;;;;;6.20;4.70;;;;;;;13.94;95.64;98489.25;220181;1277;25267;-79
2022/09/11 20:07:33;;;;;;;6.20;4.80;;;;;;;13.90;95.67;98491.92;220899;1278;24361;-79
2022/09/11 20:12:50;;;;;;;8.00;5.20;;;;;;;13.82;95.76;98491.52;219849;1277;23106;-78
2022/09/11 20:18:32;;;;;;;5.20;4.30;;;;;;;13.72;95.80;98495.16;219956;1278;22571;-79
2022/09/11 20:24:19;;;;;;;7.60;4.90;;;;;;;13.63;96.11;98499.89;220188;1276;24296;-79
2022/09/11 20:29:50;;;;;;;;;;;;;;;;;;;;;
2022/09/11 20:34:59;;;;;;;7.20;5.30;;;;;;;13.56;96.40;98499.25;219746;1277;22639;-77
2022/09/11 20:40:41;;;;;;;8.90;4.80;;;;;;;13.51;96.40;98498.35;220273;1276;24348;-79
2022/09/11 20:46:31;;;;;;;6.60;5.20;;;;;;;13.48;96.57;98502.48;220052;1277;25269;-78
2022/09/11 20:59:10;;;;;;;9.60;5.60;;;;;;;13.50;96.92;98504.36;219980;1277;25267;-79
2022/09/11 21:05:41;;;;;;;10.20;5.80;;;;;;;13.50;97.09;98503.39;219860;1277;25281;-76
2022/09/11 21:11:50;;;;;;;8.00;5.30;;;;;;;13.51;97.13;98499.11;220098;1277;24278;-80
2022/09/11 21:18:28;;;;;;;7.40;5.20;;;;;;;13.42;97.34;98500.02;219758;1277;22546;-79
2022/09/11 21:24:27;;;;;;;8.70;6.00;;;;;;;13.37;97.72;98501.30;219051;1282;24220;-78
2022/09/11 21:30:10;;;;;;;9.20;6.30;;;;;;;13.35;97.88;98501.23;219384;1282;22606;-79
2022/09/11 21:36:35;;;;;;;10.20;6.90;;;;;;;13.36;98.08;98498.70;219907;1284;23149;-79
2022/09/11 21:43:27;;;;;;;9.40;7.20;;;;;;;13.31;98.32;98502.77;219308;1282;25564;-79
2022/09/11 21:48:46;;;;;;;9.40;6.80;;;;;;;13.28;98.40;98508.15;219016;1283;24456;-78
2022/09/11 21:55:12;;;;;;;8.70;7.10;;;;;;;13.22;98.56;98510.09;219054;1281;24357;-78
2022/09/11 22:01:22;;;;;;;10.00;6.60;;;;;;;13.14;98.74;98506.21;211923;1281;1005803;-79
2022/09/11 22:07:24;;;;;;;9.60;7.00;;;;;;;13.06;98.95;98507.20;219154;1281;22856;-79
2022/09/11 22:13:39;;;;;;;;;;;;;;;;;;;;;
2022/09/11 22:19:44;;;;;;;10.30;6.30;;;;;;;12.85;99.42;98506.28;220187;1277;22890;-78
2022/09/11 22:25:57;;;;;;;8.10;6.20;;;;;;;12.76;99.69;98508.52;220012;1277;22551;-79
2022/09/11 22:32:26;;;;;;;8.20;5.70;;;;;;;12.66;99.96;98517.05;220121;1277;22712;-79
2022/09/11 22:38:15;;;;;;;9.90;6.20;;;;;;;12.56;99.95;98522.35;220100;1278;22569;-79
2022/09/11 22:44:11;;;;;;;9.50;6.10;;;;;;;12.46;100.00;98525.40;219682;1277;22617;-79
2022/09/11 22:57:28;;;;;;;9.40;6.00;;;;;;;12.32;100.00;98530.14;219975;1277;24329;-79
2022/09/11 23:17:01;;;;;;;10.00;6.40;;;;;;;12.07;100.00;98521.05;219950;1276;24238;-79
2022/09/11 23:23:31;;;;;;;11.40;6.10;;;;;;;11.98;100.00;98522.73;219903;1277;22608;-79
2022/09/11 23:36:49;;;;;;;6.10;5.00;;;;;;;11.77;100.00;98521.92;220291;1277;22573;-79
2022/09/11 23:42:59;;;;;;;10.00;4.70;;;;;;;11.67;100.00;98524.81;219812;1277;22670;-79
2022/09/11 23:49:41;;;;;;;7.50;5.10;;;;;;;11.56;100.00;98523.23;218366;1284;24119;-79
2022/09/11 23:56:05;;;;;;;6.60;5.00;;;;;;;11.49;100.00;98521.02;219070;1284;24332;-80
